Oakwood, Oklahoma
Current Conditions -  °F | °C
As of 3:15 AM on Sunday 21 Dec 2014 (Local Time) from KJWG Reporting Station
Haze Haze  
Wind Chill: 32°   Ceiling: 2400
Heat Index: 37°   Visibility: 5mi
Dew Point: 37°   Wind: 7mph
Humidity: 100%   Direction: 180°S
Pressure: 30.05"   Gusts: NA
Location:  35.93°N, 98.71°W
Report Text: KJWG 210915Z AUTO 18006KT 5SM BR OVC024 03/03 A3005 RMK AO2 T00280028
Loading
Personal Weather Stations






























Interactive Weather Map New forecast layout! Learn more

10-Day Weather Forecast

Advertisements
Track Severe Weather on mobile